createdAt,value
2019-04-30T00:01:26.003Z,8.83
2019-04-30T00:04:16.766Z,8.65
2019-04-30T00:06:46.186Z,9.90
2019-04-30T00:09:18.955Z,8.25
2019-04-30T00:11:50.705Z,8.35
2019-04-30T00:14:18.862Z,7.92
2019-04-30T00:16:48.241Z,8.33
2019-04-30T00:19:19.819Z,8.35
2019-04-30T00:21:56.970Z,7.20
2019-04-30T00:24:21.029Z,7.78
2019-04-30T00:26:52.548Z,7.20
2019-04-30T00:29:27.050Z,7.78
2019-04-30T00:31:59.294Z,7.80
2019-04-30T00:34:25.515Z,7.40
2019-04-30T00:36:55.951Z,7.05
2019-04-30T00:39:27.298Z,6.62
2019-04-30T00:41:56.651Z,7.67
2019-04-30T00:44:28.322Z,6.50
2019-04-30T00:47:00.611Z,6.67
2019-04-30T00:49:29.569Z,7.58
2019-04-30T00:51:58.824Z,7.87
2019-04-30T00:54:30.848Z,6.70
2019-04-30T00:57:04.558Z,7.83
2019-04-30T00:59:30.490Z,7.15
2019-04-30T01:02:19.987Z,5.67
2019-04-30T01:04:51.542Z,6.70
2019-04-30T01:07:21.932Z,7.30
2019-04-30T01:09:51.630Z,6.70
2019-04-30T01:12:25.532Z,6.53
2019-04-30T01:14:52.222Z,6.22
2019-04-30T01:17:21.851Z,6.78
2019-04-30T01:19:54.469Z,6.42
2019-04-30T01:22:28.051Z,6.78
2019-04-30T01:24:53.456Z,6.78
2019-04-30T01:27:23.028Z,8.08
2019-04-30T01:29:54.100Z,6.87
2019-04-30T01:32:23.358Z,7.85
2019-04-30T01:34:54.006Z,7.62
2019-04-30T01:37:28.352Z,6.65
2019-04-30T01:39:58.807Z,6.85
2019-04-30T01:42:28.476Z,6.87
2019-04-30T01:44:58.959Z,7.53
2019-04-30T01:47:31.378Z,6.50
2019-04-30T01:50:04.707Z,6.47
2019-04-30T01:52:49.511Z,6.70
2019-04-30T01:55:20.723Z,6.53
2019-04-30T01:58:19.505Z,7.33
2019-04-30T02:00:52.131Z,6.08
2019-04-30T02:03:21.562Z,6.65
2019-04-30T02:05:50.999Z,6.95
2019-04-30T02:08:20.323Z,6.85
2019-04-30T02:10:51.450Z,5.85
2019-04-30T02:13:20.943Z,7.17
2019-04-30T02:15:50.826Z,6.60
2019-04-30T02:18:20.510Z,5.92
2019-04-30T02:20:50.338Z,6.97
2019-04-30T02:23:20.087Z,5.80
2019-04-30T02:25:50.774Z,6.37
2019-04-30T02:28:20.201Z,5.72
2019-04-30T02:30:50.701Z,5.72
2019-04-30T02:33:20.681Z,7.30
2019-04-30T02:36:10.364Z,6.20
2019-04-30T02:38:49.458Z,5.53
2019-04-30T02:41:20.815Z,6.30
2019-04-30T02:43:51.996Z,7.65
2019-04-30T02:46:24.727Z,6.50
2019-04-30T02:48:59.909Z,5.97
2019-04-30T02:51:32.015Z,6.58
2019-04-30T02:54:13.181Z,6.00
2019-04-30T02:56:44.313Z,6.20
2019-04-30T02:59:13.737Z,6.30
2019-04-30T03:01:43.252Z,6.40
2019-04-30T03:04:12.576Z,6.55
2019-04-30T03:07:09.677Z,6.45
2019-04-30T03:09:39.387Z,5.92
2019-04-30T03:12:08.761Z,6.33
2019-04-30T03:14:52.839Z,6.67
2019-04-30T03:17:39.985Z,6.65
2019-04-30T03:22:46.989Z,6.50
2019-04-30T03:25:19.304Z,6.75
2019-04-30T03:27:49.853Z,6.10
2019-04-30T03:30:21.732Z,6.33
2019-04-30T03:33:07.180Z,6.60
2019-04-30T03:35:46.576Z,6.92
2019-04-30T03:38:11.110Z,6.50
2019-04-30T03:40:40.606Z,6.05
2019-04-30T03:43:10.356Z,6.62
2019-04-30T03:45:40.393Z,7.35
2019-04-30T03:48:10.347Z,6.80
2019-04-30T03:50:50.416Z,5.85
2019-04-30T03:53:13.579Z,6.78
2019-04-30T03:55:44.870Z,6.55
2019-04-30T03:58:14.136Z,6.75
2019-04-30T04:01:00.561Z,6.50
2019-04-30T04:03:33.279Z,6.53
2019-04-30T04:06:29.254Z,7.03
2019-04-30T04:09:22.374Z,6.80
2019-04-30T04:11:51.516Z,7.35
2019-04-30T04:14:20.851Z,6.90
2019-04-30T04:16:50.902Z,6.50
2019-04-30T04:19:20.433Z,6.50
2019-04-30T04:21:51.035Z,6.75
2019-04-30T04:24:20.622Z,6.40
2019-04-30T04:26:50.512Z,7.60
2019-04-30T04:29:19.890Z,6.50
2019-04-30T04:31:50.520Z,6.75
2019-04-30T04:34:20.044Z,6.67
2019-04-30T04:36:50.463Z,6.50
2019-04-30T04:39:20.559Z,7.50
2019-04-30T04:41:54.411Z,6.60
2019-04-30T04:44:23.633Z,6.97
2019-04-30T04:46:52.946Z,6.50
2019-04-30T04:49:25.060Z,7.78
2019-04-30T04:51:59.048Z,6.22
2019-04-30T04:54:29.813Z,6.83
2019-04-30T04:57:13.375Z,7.15
2019-04-30T04:59:30.143Z,7.15
2019-04-30T05:02:02.222Z,6.55
2019-04-30T05:04:34.328Z,7.15
2019-04-30T05:07:04.966Z,6.87
2019-04-30T05:09:37.130Z,6.62
2019-04-30T05:12:08.156Z,6.30
2019-04-30T05:14:40.031Z,5.83
2019-04-30T05:49:30.530Z,7.10
2019-04-30T05:52:00.661Z,7.15
2019-04-30T05:54:31.709Z,6.30
2019-04-30T05:57:02.289Z,7.20
2019-04-30T05:59:31.878Z,7.15
2019-04-30T06:02:01.647Z,6.58
2019-04-30T06:04:31.728Z,7.05
2019-04-30T06:07:08.697Z,6.65
2019-04-30T06:09:52.623Z,6.80
2019-04-30T06:12:44.111Z,6.87
2019-04-30T06:15:44.808Z,7.03
2019-04-30T06:18:14.213Z,6.92
2019-04-30T06:20:43.651Z,7.65
2019-04-30T06:23:13.068Z,6.87
2019-04-30T06:25:56.134Z,6.87
2019-04-30T06:28:14.953Z,6.92
2019-04-30T06:30:49.263Z,6.90
2019-04-30T06:33:20.219Z,8.55
2019-04-30T06:35:50.133Z,6.10
2019-04-30T06:38:20.300Z,7.42
2019-04-30T06:40:49.788Z,6.53
2019-04-30T06:43:19.954Z,6.70
2019-04-30T06:45:51.206Z,6.33
2019-04-30T06:48:20.825Z,6.05
2019-04-30T06:50:51.440Z,6.80
2019-04-30T06:53:22.329Z,5.75
2019-04-30T06:55:51.642Z,6.75
2019-04-30T06:58:21.015Z,6.45
2019-04-30T07:00:50.498Z,6.00
2019-04-30T07:03:20.226Z,7.05
2019-04-30T07:05:49.513Z,6.65
2019-04-30T07:08:40.495Z,6.30
2019-04-30T07:11:21.843Z,8.15
2019-04-30T07:13:52.209Z,7.50
2019-04-30T07:16:21.845Z,6.37
2019-04-30T07:18:51.446Z,7.53
2019-04-30T07:21:22.334Z,7.25
2019-04-30T07:23:51.811Z,7.40
2019-04-30T07:26:24.449Z,7.22
2019-04-30T07:28:55.328Z,7.53
2019-04-30T07:31:24.511Z,8.03
2019-04-30T07:33:54.165Z,7.10
2019-04-30T07:36:42.386Z,6.92
2019-04-30T07:38:56.825Z,8.08
2019-04-30T07:41:26.450Z,7.65
2019-04-30T07:43:55.782Z,6.85
2019-04-30T07:46:25.095Z,7.80
2019-04-30T07:49:00.171Z,7.10
2019-04-30T07:51:43.448Z,6.33
2019-04-30T07:54:14.248Z,7.72
2019-04-30T07:56:43.559Z,7.17
2019-04-30T07:59:14.207Z,7.85
2019-04-30T08:02:03.718Z,8.43
2019-04-30T08:04:32.662Z,7.65
2019-04-30T08:07:05.105Z,8.20
2019-04-30T08:09:41.899Z,7.05
2019-04-30T08:12:09.258Z,7.75
2019-04-30T08:14:39.306Z,6.58
2019-04-30T08:17:10.434Z,6.87
2019-04-30T08:19:41.059Z,6.40
2019-04-30T08:22:10.438Z,7.17
2019-04-30T08:24:39.819Z,7.70
2019-04-30T08:27:09.756Z,6.95
2019-04-30T08:33:32.158Z,7.55
2019-04-30T08:36:02.966Z,7.05
2019-04-30T08:38:32.522Z,9.08
2019-04-30T08:41:09.680Z,7.95
2019-04-30T08:43:42.975Z,8.33
2019-04-30T08:46:14.052Z,7.30
2019-04-30T08:48:50.451Z,8.03
2019-04-30T08:51:14.800Z,8.10
2019-04-30T08:53:45.721Z,8.00
2019-04-30T08:56:15.568Z,8.95
2019-04-30T08:58:54.936Z,7.58
2019-04-30T09:01:59.999Z,6.75
2019-04-30T09:04:29.839Z,8.20
2019-04-30T09:07:00.988Z,7.65
2019-04-30T09:09:30.460Z,8.20
2019-04-30T09:12:01.531Z,7.70
2019-04-30T09:14:30.860Z,7.90
2019-04-30T09:17:00.225Z,7.80
2019-04-30T09:19:29.960Z,7.95
2019-04-30T09:21:59.399Z,7.17
2019-04-30T09:24:30.747Z,7.10
2019-04-30T09:26:59.780Z,7.50
2019-04-30T09:29:34.129Z,7.75
2019-04-30T09:32:03.418Z,6.65
2019-04-30T09:34:32.771Z,7.30
2019-04-30T09:37:05.028Z,7.10
2019-04-30T09:39:34.304Z,7.87
2019-04-30T09:42:03.585Z,7.47
2019-04-30T09:44:33.587Z,7.30
2019-04-30T09:47:02.881Z,7.25
2019-04-30T09:49:32.150Z,6.83
2019-04-30T09:52:01.607Z,8.65
2019-04-30T09:54:31.404Z,8.43
2019-04-30T09:57:01.805Z,7.95
2019-04-30T09:59:31.572Z,7.30
2019-04-30T10:02:00.953Z,8.10
2019-04-30T10:04:31.049Z,8.23
2019-04-30T10:07:03.602Z,7.60
2019-04-30T10:09:34.343Z,7.25
2019-04-30T10:12:09.753Z,7.87
2019-04-30T10:14:41.023Z,6.78
2019-04-30T10:17:21.871Z,8.28
2019-04-30T10:19:51.153Z,7.30
2019-04-30T10:22:21.729Z,7.72
2019-04-30T10:24:54.466Z,8.90
2019-04-30T10:31:15.164Z,7.35
2019-04-30T10:33:48.529Z,7.62
2019-04-30T10:36:35.932Z,8.25
2019-04-30T10:39:09.055Z,8.35
2019-04-30T10:41:39.536Z,8.33
2019-04-30T10:44:19.380Z,8.30
2019-04-30T10:46:51.976Z,8.53
2019-04-30T10:49:21.542Z,7.17
2019-04-30T10:51:52.995Z,7.50
2019-04-30T10:54:25.770Z,7.25
2019-04-30T10:56:54.923Z,7.72
2019-04-30T10:59:24.296Z,7.80
2019-04-30T11:01:53.730Z,7.85
2019-04-30T11:04:24.345Z,8.10
2019-04-30T11:06:53.722Z,8.58
2019-04-30T11:09:23.779Z,7.55
2019-04-30T11:11:53.223Z,7.55
2019-04-30T11:14:22.725Z,7.70
2019-04-30T11:16:52.276Z,7.33
2019-04-30T11:19:23.785Z,7.70
2019-04-30T11:21:53.279Z,7.70
2019-04-30T11:24:22.755Z,8.00
2019-04-30T11:26:52.881Z,8.23
2019-04-30T11:29:23.152Z,7.67
2019-04-30T11:31:58.475Z,7.03
2019-04-30T11:34:28.295Z,6.90
2019-04-30T11:36:57.750Z,8.73
2019-04-30T11:39:29.646Z,7.20
2019-04-30T11:41:58.529Z,7.80
2019-04-30T11:44:31.253Z,8.83
2019-04-30T11:47:34.316Z,7.72
2019-04-30T11:50:06.411Z,7.62
2019-04-30T11:52:35.889Z,8.00
2019-04-30T11:55:09.502Z,8.23
2019-04-30T11:57:39.785Z,7.20
2019-04-30T12:00:13.054Z,7.80
2019-04-30T12:02:42.940Z,7.08
2019-04-30T12:05:16.098Z,7.87
2019-04-30T12:08:09.652Z,9.05
2019-04-30T12:11:06.005Z,7.75
2019-04-30T12:13:35.610Z,8.23
2019-04-30T12:16:05.199Z,7.55
2019-04-30T12:18:34.891Z,7.92
2019-04-30T12:21:04.339Z,7.40
2019-04-30T12:23:33.564Z,7.30
2019-04-30T12:26:04.645Z,7.55
2019-04-30T12:28:35.294Z,8.65
2019-04-30T12:31:05.973Z,8.60
2019-04-30T12:33:37.322Z,8.28
2019-04-30T12:36:09.048Z,6.80
2019-04-30T12:38:38.739Z,6.80
2019-04-30T12:41:08.795Z,8.20
2019-04-30T12:43:38.122Z,8.53
2019-04-30T12:46:09.702Z,7.75
2019-04-30T12:48:53.912Z,8.83
2019-04-30T12:51:29.104Z,8.28
2019-04-30T12:54:07.213Z,7.50
2019-04-30T12:56:55.563Z,7.25
2019-04-30T12:59:24.806Z,6.90
2019-04-30T13:01:56.280Z,8.45
2019-04-30T13:04:25.655Z,7.58
2019-04-30T13:06:55.175Z,8.65
2019-04-30T13:09:26.842Z,9.53
2019-04-30T13:11:59.669Z,8.13
2019-04-30T13:14:30.163Z,8.60
2019-04-30T13:16:59.391Z,8.38
2019-04-30T13:19:28.754Z,8.15
2019-04-30T13:21:58.701Z,6.60
2019-04-30T13:24:31.079Z,8.60
2019-04-30T13:26:59.597Z,8.40
2019-04-30T13:29:33.671Z,8.48
2019-04-30T13:32:03.079Z,8.90
2019-04-30T13:34:49.374Z,6.80
2019-04-30T13:37:19.217Z,9.10
2019-04-30T13:39:56.413Z,7.95
2019-04-30T13:42:32.791Z,8.58
2019-04-30T13:45:02.138Z,8.43
2019-04-30T13:47:31.503Z,7.92
2019-04-30T13:50:00.898Z,7.50
2019-04-30T13:52:31.099Z,8.50
2019-04-30T13:55:00.325Z,7.17
2019-04-30T13:57:34.561Z,9.18
2019-04-30T14:00:04.803Z,7.28
2019-04-30T14:02:54.246Z,7.30
2019-04-30T14:05:23.527Z,8.23
2019-04-30T14:08:20.024Z,7.37
2019-04-30T14:10:49.449Z,7.75
2019-04-30T14:13:19.878Z,8.15
2019-04-30T14:15:51.397Z,7.53
2019-04-30T14:18:28.425Z,7.20
2019-04-30T14:20:51.907Z,7.67
2019-04-30T14:23:23.163Z,7.53
2019-04-30T14:25:56.517Z,8.10
2019-04-30T14:28:23.627Z,7.15
2019-04-30T14:30:54.074Z,7.58
2019-04-30T14:33:26.504Z,7.47
2019-04-30T14:35:54.294Z,7.62
2019-04-30T14:38:25.785Z,7.92
2019-04-30T14:40:55.414Z,7.95
2019-04-30T14:43:34.617Z,7.08
2019-04-30T14:46:33.345Z,7.33
2019-04-30T14:49:21.937Z,8.28
2019-04-30T14:51:51.416Z,8.43
2019-04-30T14:54:32.201Z,7.67
2019-04-30T14:57:11.080Z,7.80
2019-04-30T15:00:02.607Z,6.95
2019-04-30T15:02:40.153Z,7.10
2019-04-30T15:05:09.731Z,9.43
2019-04-30T15:07:41.625Z,7.78
2019-04-30T15:10:11.286Z,8.55
2019-04-30T15:12:40.623Z,6.70
2019-04-30T15:15:10.314Z,7.05
2019-04-30T15:17:41.276Z,6.75
2019-04-30T15:20:11.315Z,8.00
2019-04-30T15:22:45.824Z,6.90
2019-04-30T15:25:15.336Z,6.95
2019-04-30T15:27:49.126Z,7.80
2019-04-30T15:30:21.779Z,7.65
2019-04-30T15:32:50.343Z,6.20
2019-04-30T15:35:19.808Z,7.58
2019-04-30T15:37:50.787Z,7.67
2019-04-30T15:40:20.411Z,6.55
2019-04-30T15:42:51.542Z,6.95
2019-04-30T15:45:46.326Z,6.35
2019-04-30T15:48:41.190Z,6.65
2019-04-30T15:51:16.654Z,6.25
2019-04-30T15:53:54.520Z,5.53
2019-04-30T15:56:35.167Z,6.33
2019-04-30T15:59:19.324Z,5.40
2019-04-30T16:01:54.664Z,6.80
2019-04-30T16:04:33.313Z,6.47
2019-04-30T16:07:08.393Z,5.75
2019-04-30T16:09:44.473Z,6.45
2019-04-30T16:12:30.165Z,6.67
2019-04-30T16:15:51.995Z,6.28
2019-04-30T16:22:44.581Z,5.60
2019-04-30T16:29:01.334Z,6.22
2019-04-30T16:31:36.404Z,5.92
2019-04-30T16:34:43.254Z,6.60
2019-04-30T16:37:12.603Z,5.70
2019-04-30T16:39:42.814Z,7.55
2019-04-30T16:42:31.453Z,6.35
2019-04-30T16:45:01.280Z,6.17
2019-04-30T16:47:31.029Z,5.25
2019-04-30T16:50:00.304Z,5.85
2019-04-30T16:52:29.551Z,5.30
2019-04-30T16:55:17.732Z,6.67
2019-04-30T16:57:49.830Z,6.00
2019-04-30T17:03:45.927Z,6.03
2019-04-30T17:06:20.879Z,6.60
2019-04-30T17:08:57.889Z,5.87
2019-04-30T17:11:44.702Z,5.33
2019-04-30T17:14:16.372Z,5.30
2019-04-30T17:16:45.588Z,7.42
2019-04-30T17:19:16.740Z,5.30
2019-04-30T17:21:45.974Z,6.75
2019-04-30T17:24:19.319Z,6.40
2019-04-30T17:27:21.966Z,6.78
2019-04-30T17:29:48.107Z,6.53
2019-04-30T17:32:23.047Z,6.80
2019-04-30T17:35:01.359Z,6.80
2019-04-30T17:37:31.601Z,7.00
2019-04-30T17:40:02.346Z,7.25
2019-04-30T18:24:19.594Z,8.98
2019-04-30T18:29:36.536Z,9.25
2019-04-30T18:32:17.093Z,9.55
2019-04-30T18:34:46.687Z,8.95
2019-04-30T18:37:19.188Z,8.30
2019-04-30T18:39:52.232Z,9.55
2019-04-30T18:42:21.622Z,9.93
2019-04-30T18:44:53.450Z,9.90
2019-04-30T18:47:22.845Z,10.75
2019-04-30T18:49:52.158Z,11.08
2019-04-30T18:52:21.840Z,9.88
2019-04-30T18:54:51.211Z,10.55
2019-04-30T18:57:42.702Z,10.35
2019-04-30T19:00:19.783Z,9.83
2019-04-30T19:02:48.743Z,9.98
2019-04-30T19:05:25.283Z,11.33
2019-04-30T19:08:00.002Z,12.53
2019-04-30T19:11:00.503Z,10.75
2019-04-30T19:13:51.532Z,13.65
2019-04-30T19:16:51.948Z,13.48
2019-04-30T19:19:33.166Z,13.25
2019-04-30T19:22:02.866Z,13.30
2019-04-30T19:24:35.502Z,11.90
2019-04-30T19:27:05.135Z,13.53
2019-04-30T19:29:35.547Z,14.13
2019-04-30T19:32:09.505Z,13.08
2019-04-30T19:34:39.098Z,14.63
2019-04-30T19:37:10.220Z,13.98
2019-04-30T19:39:39.789Z,14.45
2019-04-30T19:42:09.306Z,15.15
2019-04-30T19:44:39.553Z,16.32
2019-04-30T19:47:14.610Z,14.23
2019-04-30T19:49:44.626Z,14.87
2019-04-30T19:52:24.962Z,16.00
2019-04-30T19:54:54.233Z,15.20
2019-04-30T19:57:24.296Z,16.35
2019-04-30T19:59:54.309Z,16.65
2019-04-30T20:02:25.287Z,17.30
2019-04-30T20:04:55.927Z,18.42
2019-04-30T20:08:10.816Z,17.90
2019-04-30T20:10:39.858Z,19.32
2019-04-30T20:13:10.809Z,18.60
2019-04-30T20:15:40.376Z,16.30
2019-04-30T20:18:13.216Z,15.95
2019-04-30T20:20:44.839Z,16.02
2019-04-30T20:23:15.567Z,17.75
2019-04-30T20:25:45.786Z,16.60
2019-04-30T20:28:15.339Z,17.62
2019-04-30T20:30:44.707Z,16.75
2019-04-30T20:33:18.924Z,15.65
2019-04-30T20:35:49.058Z,16.97
2019-04-30T20:38:56.784Z,15.45
2019-04-30T20:41:28.861Z,16.75
2019-04-30T20:44:02.078Z,15.72
2019-04-30T20:46:35.202Z,17.92
2019-04-30T20:49:02.727Z,17.98
2019-04-30T20:52:16.206Z,18.95
2019-04-30T20:55:40.850Z,17.90
2019-04-30T20:58:09.930Z,19.90
2019-04-30T21:00:39.298Z,23.57
2019-04-30T21:03:09.806Z,22.52
2019-04-30T21:05:47.308Z,23.07
2019-04-30T21:08:18.589Z,23.80
2019-04-30T21:10:49.408Z,24.43
2019-04-30T21:13:19.473Z,24.25
2019-04-30T21:15:49.595Z,26.02
2019-04-30T21:18:32.416Z,25.43
2019-04-30T21:21:04.436Z,25.08
2019-04-30T21:23:33.702Z,25.37
2019-04-30T21:26:03.025Z,24.20
2019-04-30T21:28:34.060Z,24.37
2019-04-30T21:31:22.457Z,24.45
2019-04-30T21:33:54.666Z,23.00
2019-04-30T21:36:25.433Z,22.22
2019-04-30T21:38:54.783Z,26.52
2019-04-30T21:41:24.114Z,25.88
2019-04-30T21:44:06.350Z,24.95
2019-04-30T21:46:37.600Z,25.20
2019-04-30T21:49:08.753Z,24.95
2019-04-30T21:51:40.110Z,24.82
2019-04-30T21:54:08.896Z,24.87
2019-04-30T21:56:38.188Z,24.27
2019-04-30T21:59:08.268Z,23.70
2019-04-30T22:01:37.793Z,24.07
2019-04-30T22:04:08.283Z,23.52
2019-04-30T22:06:39.427Z,25.05
2019-04-30T22:09:10.574Z,23.65
2019-04-30T22:11:40.953Z,23.22
2019-04-30T22:14:10.344Z,24.32
2019-04-30T22:16:39.909Z,22.20
2019-04-30T22:19:09.288Z,22.55
2019-04-30T22:21:39.597Z,22.80
2019-04-30T22:24:08.982Z,21.97
2019-04-30T22:26:38.370Z,23.45
2019-04-30T22:29:09.252Z,23.35
2019-04-30T22:31:39.619Z,23.40
2019-04-30T22:34:08.966Z,23.40
2019-04-30T22:36:42.570Z,23.05
2019-04-30T22:39:30.129Z,20.52
2019-04-30T22:42:20.112Z,19.60
2019-04-30T22:44:49.720Z,20.50
2019-04-30T22:47:19.128Z,20.40
2019-04-30T22:49:48.381Z,21.00
2019-04-30T22:52:17.714Z,19.60
2019-04-30T22:54:46.963Z,19.98
2019-04-30T22:57:16.144Z,19.60
2019-04-30T22:59:49.958Z,17.60
2019-04-30T23:02:25.274Z,19.10
2019-04-30T23:04:59.257Z,18.77
2019-04-30T23:07:28.502Z,18.75
2019-04-30T23:09:57.819Z,17.12
2019-04-30T23:12:27.147Z,18.98
2019-04-30T23:14:56.418Z,18.60
2019-04-30T23:17:25.685Z,18.42
2019-04-30T23:19:54.938Z,19.60
2019-04-30T23:22:26.396Z,18.98
2019-04-30T23:24:55.652Z,19.50
2019-04-30T23:27:24.829Z,17.70
2019-04-30T23:30:03.147Z,16.65
2019-04-30T23:32:25.098Z,17.05
2019-04-30T23:34:54.399Z,18.17
2019-04-30T23:37:23.710Z,17.20
2019-04-30T23:39:53.041Z,17.27
2019-04-30T23:42:22.218Z,17.05
2019-04-30T23:44:51.473Z,18.52
2019-04-30T23:47:20.705Z,18.15
2019-04-30T23:49:49.947Z,17.62
2019-04-30T23:52:19.189Z,17.23
2019-04-30T23:54:48.817Z,18.35
2019-04-30T23:57:18.095Z,19.02
2019-04-30T23:59:48.303Z,18.85
